createdAt,value
2019-03-01T00:01:28.087Z,100047.89
2019-03-01T00:04:08.199Z,100047.94
2019-03-01T00:06:55.338Z,100045.61
2019-03-01T00:09:57.193Z,100048.45
2019-03-01T00:12:38.983Z,100041.66
2019-03-01T00:15:43.918Z,100036.38
2019-03-01T00:18:21.039Z,100040.84
2019-03-01T00:21:22.118Z,100039.03
2019-03-01T00:24:54.351Z,100030.89
2019-03-01T00:27:36.519Z,100030.69
2019-03-01T00:30:37.830Z,100026.42
2019-03-01T00:33:29.942Z,100022.59
2019-03-01T00:36:56.050Z,100021.87
2019-03-01T00:39:34.798Z,100022.52
2019-03-01T00:42:47.966Z,100024.66
2019-03-01T00:45:17.768Z,100019.84
2019-03-01T00:47:47.641Z,100013.16
2019-03-01T00:50:17.503Z,100007.75
2019-03-01T00:52:47.371Z,100009.22
2019-03-01T00:55:18.370Z,100005.33
2019-03-01T00:57:48.483Z,100006.28
2019-03-01T01:00:34.412Z,100003.76
2019-03-01T01:03:04.200Z,100001.83
2019-03-01T01:05:33.928Z,99998.29
2019-03-01T01:08:04.131Z,99991.36
2019-03-01T01:10:34.243Z,99987.92
2019-03-01T01:13:04.146Z,99988.73
2019-03-01T01:15:33.934Z,99980.84
2019-03-01T01:18:04.093Z,99976.68
2019-03-01T01:20:34.116Z,99974.75
2019-03-01T01:23:03.918Z,99970.91
2019-03-01T01:25:33.709Z,99970.41
2019-03-01T01:28:03.852Z,99965.86
2019-03-01T01:30:33.648Z,99968.38
2019-03-01T01:33:03.449Z,99968.78
2019-03-01T01:35:33.314Z,99975.27
2019-03-01T01:38:03.036Z,99973.75
2019-03-01T01:40:32.824Z,99970.31
2019-03-01T01:43:02.570Z,99965.55
2019-03-01T01:45:32.480Z,99969.70
2019-03-01T01:48:02.223Z,99962.41
2019-03-01T01:50:32.368Z,99961.40
2019-03-01T01:53:02.385Z,99956.14
2019-03-01T01:55:32.443Z,99961.70
2019-03-01T01:58:02.282Z,99961.40
2019-03-01T02:00:32.059Z,99962.86
2019-03-01T02:03:02.106Z,99953.61
2019-03-01T02:05:31.892Z,99955.77
2019-03-01T02:08:01.713Z,99955.27
2019-03-01T02:10:31.788Z,99956.28
2019-03-01T02:13:01.706Z,99944.73
2019-03-01T02:15:31.495Z,99953.14
2019-03-01T02:18:01.192Z,99940.66
2019-03-01T02:20:30.991Z,99946.56
2019-03-01T02:23:01.819Z,99942.68
2019-03-01T02:25:31.607Z,99941.25
2019-03-01T02:28:01.384Z,99933.27
2019-03-01T02:30:31.614Z,99933.56
2019-03-01T02:33:01.317Z,99926.08
2019-03-01T02:35:30.988Z,99932.05
2019-03-01T02:38:00.802Z,99930.63
2019-03-01T02:40:30.682Z,99924.86
2019-03-01T02:43:00.681Z,99929.62
2019-03-01T02:45:30.455Z,99927.70
2019-03-01T02:48:00.214Z,99924.05
2019-03-01T02:50:30.399Z,99926.89
2019-03-01T02:53:00.146Z,99929.62
2019-03-01T02:55:29.867Z,99925.16
2019-03-01T02:57:59.643Z,99925.97
2019-03-01T03:00:29.618Z,99927.30
2019-03-01T03:02:59.504Z,99931.24
2019-03-01T03:05:29.333Z,99914.54
2019-03-01T03:08:00.990Z,99917.98
2019-03-01T03:10:31.817Z,99920.00
2019-03-01T03:13:07.204Z,99915.75
2019-03-01T03:15:40.851Z,99913.62
2019-03-01T03:18:10.661Z,99910.09
2019-03-01T03:20:41.149Z,99921.01
2019-03-01T03:23:10.960Z,99915.66
2019-03-01T03:25:40.808Z,99914.13
2019-03-01T03:28:10.520Z,99915.55
2019-03-01T03:30:40.389Z,99908.46
2019-03-01T03:33:10.178Z,99913.62
2019-03-01T03:35:40.050Z,99916.35
2019-03-01T03:38:09.761Z,99911.48
2019-03-01T03:40:39.583Z,99911.08
2019-03-01T03:43:09.444Z,99904.41
2019-03-01T03:45:39.264Z,99908.97
2019-03-01T03:48:09.051Z,99909.17
2019-03-01T03:50:39.008Z,99910.48
2019-03-01T03:53:08.705Z,99910.28
2019-03-01T03:55:38.467Z,99911.30
2019-03-01T03:58:08.173Z,99912.81
2019-03-01T04:00:37.959Z,99912.41
2019-03-01T04:03:08.958Z,99906.83
2019-03-01T04:05:38.816Z,99898.63
2019-03-01T04:08:08.729Z,99901.27
2019-03-01T04:10:38.485Z,99894.69
2019-03-01T04:13:08.315Z,99887.20
2019-03-01T04:15:38.112Z,99880.52
2019-03-01T04:18:08.981Z,99883.97
2019-03-01T04:20:38.998Z,99890.33
2019-03-01T04:23:08.741Z,99887.30
2019-03-01T04:25:38.654Z,99884.27
2019-03-01T04:28:08.382Z,99893.27
2019-03-01T04:30:38.116Z,99892.66
2019-03-01T04:33:07.890Z,99890.75
2019-03-01T04:35:37.595Z,99887.61
2019-03-01T04:38:07.320Z,99885.98
2019-03-01T04:40:37.390Z,99890.33
2019-03-01T04:43:07.198Z,99892.76
2019-03-01T04:45:37.317Z,99891.95
2019-03-01T04:48:07.083Z,99894.38
2019-03-01T04:50:37.167Z,99899.03
2019-03-01T04:53:06.959Z,99897.83
2019-03-01T04:55:36.760Z,99890.75
2019-03-01T04:58:06.604Z,99895.20
2019-03-01T05:00:36.722Z,99892.77
2019-03-01T05:03:06.454Z,99884.67
2019-03-01T05:05:36.211Z,99893.88
2019-03-01T05:08:06.004Z,99889.13
2019-03-01T05:10:36.151Z,99891.45
2019-03-01T05:13:06.378Z,99885.89
2019-03-01T05:15:36.092Z,99886.39
2019-03-01T05:18:05.864Z,99891.65
2019-03-01T05:20:35.947Z,99895.48
2019-03-01T05:23:05.727Z,99893.17
2019-03-01T05:25:35.791Z,99894.39
2019-03-01T05:28:05.544Z,99887.30
2019-03-01T05:30:35.350Z,99888.52
2019-03-01T05:33:05.142Z,99889.94
2019-03-01T05:35:34.953Z,99892.76
2019-03-01T05:38:05.153Z,99897.32
2019-03-01T05:40:34.875Z,99897.83
2019-03-01T05:43:04.682Z,99900.16
2019-03-01T05:45:34.543Z,99897.32
2019-03-01T05:48:04.338Z,99902.58
2019-03-01T05:50:34.504Z,99906.41
2019-03-01T05:53:04.400Z,99900.86
2019-03-01T05:55:34.223Z,99903.19
2019-03-01T05:58:43.439Z,99896.41
2019-03-01T06:01:17.834Z,99897.53
2019-03-01T06:04:07.515Z,99897.62
2019-03-01T06:07:04.458Z,99899.45
2019-03-01T06:09:46.824Z,99899.44
2019-03-01T06:12:52.228Z,99900.85
2019-03-01T06:15:48.824Z,99903.38
2019-03-01T06:18:49.130Z,99903.07
2019-03-01T06:22:09.620Z,99900.84
2019-03-01T06:25:02.584Z,99897.70
2019-03-01T06:28:12.967Z,99902.77
2019-03-01T06:30:56.760Z,99901.84
2019-03-01T06:34:03.558Z,99903.27
2019-03-01T06:37:10.774Z,99905.66
2019-03-01T06:40:38.919Z,99906.25
2019-03-01T06:43:33.823Z,99905.43
2019-03-01T06:46:34.098Z,99910.18
2019-03-01T06:49:22.865Z,99916.45
2019-03-01T06:51:52.635Z,99917.75
2019-03-01T06:54:22.459Z,99923.84
2019-03-01T06:56:52.181Z,99925.36
2019-03-01T06:59:23.027Z,99930.32
2019-03-01T07:01:52.765Z,99928.80
2019-03-01T07:04:22.613Z,99930.01
2019-03-01T07:06:52.366Z,99935.58
2019-03-01T07:09:22.142Z,99936.70
2019-03-01T07:11:51.970Z,99939.73
2019-03-01T07:14:21.668Z,99939.23
2019-03-01T07:16:51.487Z,99940.75
2019-03-01T07:19:21.221Z,99945.30
2019-03-01T07:21:51.306Z,99940.33
2019-03-01T07:24:21.456Z,99942.45
2019-03-01T07:26:51.165Z,99940.33
2019-03-01T07:29:21.042Z,99946.77
2019-03-01T07:31:51.173Z,99946.02
2019-03-01T07:34:20.865Z,99954.66
2019-03-01T07:36:50.586Z,99947.78
2019-03-01T07:39:20.466Z,99960.62
2019-03-01T07:41:50.176Z,99959.92
2019-03-01T07:44:19.983Z,99962.25
2019-03-01T07:46:52.991Z,99959.53
2019-03-01T07:49:21.267Z,99960.55
2019-03-01T07:51:50.949Z,99969.54
2019-03-01T07:54:22.351Z,99974.71
2019-03-01T07:56:52.203Z,99973.91
2019-03-01T07:59:23.946Z,99978.47
2019-03-01T08:01:55.848Z,99980.19
2019-03-01T08:04:28.827Z,99985.14
2019-03-01T08:06:56.841Z,99985.06
2019-03-01T08:09:26.829Z,99983.04
2019-03-01T08:11:56.599Z,99982.23
2019-03-01T08:14:27.991Z,99984.78
2019-03-01T08:16:59.233Z,99985.89
2019-03-01T08:19:28.969Z,99990.86
2019-03-01T08:21:58.903Z,99992.43
2019-03-01T08:24:28.707Z,99995.06
2019-03-01T08:26:58.521Z,99993.34
2019-03-01T08:29:30.722Z,99998.61
2019-03-01T08:31:59.707Z,100001.73
2019-03-01T08:34:29.432Z,100005.88
2019-03-01T08:36:59.221Z,100017.83
2019-03-01T08:39:28.988Z,100016.12
2019-03-01T08:42:01.307Z,100019.06
2019-03-01T08:44:31.514Z,100023.73
2019-03-01T08:47:01.325Z,100024.23
2019-03-01T08:49:31.125Z,100024.14
2019-03-01T08:52:01.528Z,100024.89
2019-03-01T08:54:32.365Z,100030.66
2019-03-01T08:57:02.249Z,100024.65
2019-03-01T08:59:32.304Z,100030.63
2019-03-01T09:02:02.078Z,100037.91
2019-03-01T09:04:37.769Z,100033.14
2019-03-01T09:07:03.616Z,100046.72
2019-03-01T09:09:33.365Z,100042.16
2019-03-01T09:12:03.424Z,100043.27
2019-03-01T09:14:33.466Z,100038.41
2019-03-01T09:17:03.262Z,100041.95
2019-03-01T09:19:33.400Z,100044.49
2019-03-01T09:22:03.425Z,100047.13
2019-03-01T09:24:33.250Z,100046.52
2019-03-01T09:27:03.447Z,100038.02
2019-03-01T09:29:41.249Z,100050.17
2019-03-01T09:32:05.129Z,100053.80
2019-03-01T09:34:34.834Z,100053.09
2019-03-01T09:37:04.605Z,100051.36
2019-03-01T09:39:34.501Z,100057.05
2019-03-01T09:42:06.224Z,100051.06
2019-03-01T09:44:38.449Z,100057.25
2019-03-01T09:47:07.379Z,100056.66
2019-03-01T09:49:37.208Z,100065.14
2019-03-01T09:52:07.023Z,100063.19
2019-03-01T09:54:36.903Z,100062.88
2019-03-01T09:57:06.781Z,100063.78
2019-03-01T09:59:36.627Z,100071.40
2019-03-01T10:02:06.440Z,100076.36
2019-03-01T10:04:36.252Z,100075.55
2019-03-01T10:07:06.027Z,100082.97
2019-03-01T10:09:35.827Z,100086.82
2019-03-01T10:12:05.627Z,100085.22
2019-03-01T10:14:35.654Z,100090.24
2019-03-01T10:17:05.420Z,100093.98
2019-03-01T10:19:35.182Z,100103.58
2019-03-01T10:22:04.996Z,100118.94
2019-03-01T10:24:34.992Z,100119.02
2019-03-01T10:27:04.796Z,100121.66
2019-03-01T10:29:34.548Z,100123.19
2019-03-01T10:32:04.393Z,100122.32
2019-03-01T10:34:34.256Z,100122.67
2019-03-01T10:37:05.099Z,100131.64
2019-03-01T10:39:34.996Z,100127.31
2019-03-01T10:42:04.748Z,100136.35
2019-03-01T10:44:34.578Z,100141.23
2019-03-01T10:47:04.451Z,100143.87
2019-03-01T10:49:34.216Z,100149.28
2019-03-01T10:52:04.090Z,100156.80
2019-03-01T10:54:33.921Z,100149.72
2019-03-01T10:57:03.770Z,100164.05
2019-03-01T10:59:33.785Z,100175.11
2019-03-01T11:02:03.634Z,100172.48
2019-03-01T11:04:33.426Z,100178.67
2019-03-01T11:07:03.587Z,100182.81
2019-03-01T11:09:33.406Z,100186.70
2019-03-01T11:12:03.180Z,100189.44
2019-03-01T11:14:33.064Z,100193.11
2019-03-01T11:17:02.959Z,100189.72
2019-03-01T11:19:32.723Z,100196.86
2019-03-01T11:22:02.414Z,100202.98
2019-03-01T11:24:32.532Z,100200.06
2019-03-01T11:27:02.353Z,100208.28
2019-03-01T11:29:32.127Z,100210.67
2019-03-01T11:32:01.929Z,100211.41
2019-03-01T11:34:31.614Z,100216.68
2019-03-01T11:37:01.830Z,100214.80
2019-03-01T11:39:31.605Z,100218.23
2019-03-01T11:42:01.749Z,100222.17
2019-03-01T11:44:31.611Z,100224.23
2019-03-01T11:47:01.324Z,100221.58
2019-03-01T11:49:31.398Z,100229.80
2019-03-01T11:52:01.226Z,100239.03
2019-03-01T11:54:31.042Z,100239.67
2019-03-01T11:57:00.896Z,100256.92
2019-03-01T11:59:30.670Z,100256.92
2019-03-01T12:02:00.461Z,100251.70
2019-03-01T12:04:30.184Z,100258.53
2019-03-01T12:07:00.255Z,100257.66
2019-03-01T12:09:30.053Z,100264.54
2019-03-01T12:11:59.820Z,100265.05
2019-03-01T12:14:30.820Z,100271.09
2019-03-01T12:17:00.594Z,100272.59
2019-03-01T12:19:30.357Z,100272.59
2019-03-01T12:22:00.391Z,100265.62
2019-03-01T12:24:30.169Z,100279.80
2019-03-01T12:27:00.024Z,100272.41
2019-03-01T12:29:29.771Z,100277.53
2019-03-01T12:31:59.708Z,100278.31
2019-03-01T12:34:29.418Z,100275.77
2019-03-01T12:36:59.240Z,100286.89
2019-03-01T12:39:29.013Z,100288.00
2019-03-01T12:41:58.792Z,100302.05
2019-03-01T12:44:28.565Z,100302.39
2019-03-01T12:46:58.354Z,100310.92
2019-03-01T12:49:28.425Z,100319.59
2019-03-01T12:51:58.217Z,100327.06
2019-03-01T12:54:29.258Z,100323.16
2019-03-01T12:56:58.924Z,100334.69
2019-03-01T12:59:29.021Z,100332.05
2019-03-01T13:01:58.807Z,100324.83
2019-03-01T13:04:28.574Z,100321.70
2019-03-01T13:06:58.237Z,100319.98
2019-03-01T13:09:28.118Z,100339.40
2019-03-01T13:11:57.924Z,100339.40
2019-03-01T13:14:27.755Z,100337.97
2019-03-01T13:16:58.509Z,100337.97
2019-03-01T13:19:28.946Z,100341.22
2019-03-01T13:21:59.245Z,100341.22
2019-03-01T13:24:28.999Z,100337.58
2019-03-01T13:26:58.819Z,100332.84
2019-03-01T13:29:28.642Z,100332.84
2019-03-01T13:31:58.467Z,100330.11
2019-03-01T13:34:28.194Z,100340.09
2019-03-01T13:36:58.025Z,100334.97
2019-03-01T13:39:27.854Z,100342.45
2019-03-01T13:41:57.704Z,100339.67
2019-03-01T13:44:27.515Z,100349.52
2019-03-01T13:46:58.304Z,100355.16
2019-03-01T13:49:30.372Z,100355.41
2019-03-01T13:51:59.559Z,100355.41
2019-03-01T13:54:29.341Z,100361.57
2019-03-01T13:56:59.543Z,100361.57
2019-03-01T13:59:29.378Z,100367.69
2019-03-01T14:01:59.129Z,100365.89
2019-03-01T14:04:28.957Z,100363.63
2019-03-01T14:06:59.052Z,100363.63
2019-03-01T14:09:28.844Z,100364.19
2019-03-01T14:11:59.192Z,100369.00
2019-03-01T14:14:30.203Z,100369.00
2019-03-01T14:17:00.447Z,100372.14
2019-03-01T14:19:30.248Z,100371.75
2019-03-01T14:21:59.943Z,100372.92
2019-03-01T14:24:30.539Z,100372.14
2019-03-01T14:27:00.735Z,100372.27
2019-03-01T14:29:30.401Z,100382.09
2019-03-01T14:32:00.337Z,100382.09
2019-03-01T14:34:30.795Z,100374.24
2019-03-01T14:37:00.564Z,100376.86
2019-03-01T14:39:30.272Z,100383.44
2019-03-01T14:42:00.291Z,100381.13
2019-03-01T14:44:30.703Z,100368.05
2019-03-01T14:47:02.069Z,100384.45
2019-03-01T14:49:31.745Z,100385.89
2019-03-01T14:52:01.571Z,100383.80
2019-03-01T14:54:31.670Z,100389.95
2019-03-01T14:57:10.699Z,100372.27
2019-03-01T15:00:23.579Z,100388.11
2019-03-01T15:03:16.652Z,100389.69
2019-03-01T15:05:45.663Z,100383.31
2019-03-01T15:08:15.502Z,100390.48
2019-03-01T15:10:45.285Z,100390.48
2019-03-01T15:13:15.021Z,100392.57
2019-03-01T15:15:45.071Z,100397.55
2019-03-01T15:18:14.934Z,100397.80
2019-03-01T15:20:44.844Z,100397.86
2019-03-01T15:23:15.171Z,100397.86
2019-03-01T15:25:48.441Z,100409.67
2019-03-01T15:28:17.954Z,100412.16
2019-03-01T15:30:47.751Z,100407.44
2019-03-01T15:33:17.434Z,100406.64
2019-03-01T15:35:47.634Z,100411.50
2019-03-01T15:38:17.446Z,100408.92
2019-03-01T15:40:47.204Z,100420.63
2019-03-01T15:43:16.946Z,100420.63
2019-03-01T15:45:46.640Z,100424.12
2019-03-01T15:48:16.469Z,100431.58
2019-03-01T15:50:46.614Z,100431.58
2019-03-01T15:53:16.341Z,100429.09
2019-03-01T15:55:46.050Z,100431.12
2019-03-01T15:58:15.821Z,100428.77
2019-03-01T16:00:45.641Z,100428.77
2019-03-01T16:03:15.465Z,100429.58
2019-03-01T16:05:45.720Z,100442.69
2019-03-01T16:08:15.472Z,100446.31
2019-03-01T16:10:45.357Z,100452.62
2019-03-01T16:13:15.192Z,100459.63
2019-03-01T16:15:44.887Z,100462.89
2019-03-01T16:18:14.875Z,100462.64
2019-03-01T16:20:44.598Z,100465.90
2019-03-01T16:23:14.374Z,100462.38
2019-03-01T16:25:44.230Z,100467.30
2019-03-01T16:28:14.777Z,100473.73
2019-03-01T16:30:44.536Z,100479.21
2019-03-01T16:33:14.215Z,100488.25
2019-03-01T16:35:44.027Z,100495.73
2019-03-01T16:38:13.865Z,100495.73
2019-03-01T16:40:43.654Z,100499.44
2019-03-01T16:43:13.575Z,100497.84
2019-03-01T16:45:43.643Z,100497.84
2019-03-01T16:48:16.666Z,100492.70
2019-03-01T16:50:45.151Z,100503.36
2019-03-01T16:53:15.450Z,100508.56
2019-03-01T16:55:45.276Z,100507.40
2019-03-01T16:58:14.982Z,100506.42
2019-03-01T17:00:44.696Z,100512.30
2019-03-01T17:03:17.978Z,100510.86
2019-03-01T17:05:46.067Z,100517.81
2019-03-01T17:08:15.886Z,100518.34
2019-03-01T17:10:47.166Z,100523.46
2019-03-01T17:13:16.990Z,100530.42
2019-03-01T17:15:48.458Z,100525.16
2019-03-01T17:18:18.189Z,100528.11
2019-03-01T17:20:48.292Z,100528.11
2019-03-01T17:23:18.450Z,100533.98
2019-03-01T17:25:48.349Z,100540.12
2019-03-01T17:28:23.598Z,100543.70
2019-03-01T17:30:50.792Z,100549.22
2019-03-01T17:33:21.274Z,100549.44
2019-03-01T17:35:50.975Z,100550.70
2019-03-01T17:38:20.787Z,100550.70
2019-03-01T17:40:50.588Z,100553.36
2019-03-01T17:43:20.556Z,100561.20
2019-03-01T17:45:50.631Z,100550.56
2019-03-01T17:48:22.224Z,100552.30
2019-03-01T17:50:51.770Z,100552.30
2019-03-01T17:53:21.879Z,100545.66
2019-03-01T17:55:51.898Z,100559.36
2019-03-01T17:58:22.199Z,100562.23
2019-03-01T18:00:51.953Z,100571.14
2019-03-01T18:03:21.656Z,100571.14
2019-03-01T18:05:51.444Z,100582.94
2019-03-01T18:08:21.276Z,100582.41
2019-03-01T18:10:50.974Z,100582.13
2019-03-01T18:13:20.688Z,100582.63
2019-03-01T18:15:50.412Z,100580.53
2019-03-01T18:18:20.160Z,100577.95
2019-03-01T18:20:50.180Z,100580.57
2019-03-01T18:23:19.996Z,100585.30
2019-03-01T18:25:49.882Z,100580.86
2019-03-01T18:28:19.663Z,100579.41
2019-03-01T18:30:52.083Z,100579.86
2019-03-01T18:33:22.770Z,100579.86
2019-03-01T18:35:55.731Z,100581.45
2019-03-01T18:38:27.660Z,100578.98
2019-03-01T18:40:57.927Z,100589.30
2019-03-01T18:43:27.708Z,100583.44
2019-03-01T18:45:57.473Z,100586.02
2019-03-01T18:48:27.256Z,100592.83
2019-03-01T18:50:57.338Z,100595.41
2019-03-01T18:53:28.868Z,100599.66
2019-03-01T18:55:58.434Z,100604.64
2019-03-01T18:58:28.256Z,100604.39
2019-03-01T19:00:58.168Z,100613.91
2019-03-01T19:03:28.301Z,100610.89
2019-03-01T19:05:58.086Z,100614.19
2019-03-01T19:08:27.879Z,100617.19
2019-03-01T19:10:59.685Z,100611.42
2019-03-01T19:13:29.261Z,100612.20
2019-03-01T19:15:59.018Z,100612.31
2019-03-01T19:18:28.860Z,100616.56
2019-03-01T19:20:58.723Z,100614.47
2019-03-01T19:23:29.393Z,100615.25
2019-03-01T19:26:01.669Z,100611.29
2019-03-01T19:28:31.823Z,100611.56
2019-03-01T19:31:02.667Z,100613.91
2019-03-01T19:33:34.610Z,100616.02
2019-03-01T19:36:04.383Z,100614.86
2019-03-01T19:38:34.104Z,100617.33
2019-03-01T19:41:03.828Z,100617.58
2019-03-01T19:43:33.708Z,100617.84
2019-03-01T19:46:04.795Z,100613.58
2019-03-01T19:48:37.284Z,100611.88
2019-03-01T19:51:06.318Z,100614.78
2019-03-01T19:53:37.543Z,100612.41
2019-03-01T19:56:07.381Z,100615.31
2019-03-01T19:58:37.139Z,100622.73
2019-03-01T20:01:06.927Z,100624.38
2019-03-01T20:03:36.654Z,100626.51
2019-03-01T20:06:07.844Z,100617.15
2019-03-01T20:08:38.022Z,100622.44
2019-03-01T20:11:07.836Z,100613.86
2019-03-01T20:13:37.685Z,100620.05
2019-03-01T20:16:07.633Z,100628.83
2019-03-01T20:18:37.399Z,100621.97
2019-03-01T20:21:09.411Z,100629.32
2019-03-01T20:23:38.918Z,100636.78
2019-03-01T20:26:08.738Z,100641.63
2019-03-01T20:28:38.449Z,100648.34
2019-03-01T20:31:08.325Z,100639.11
2019-03-01T20:33:38.364Z,100643.70
2019-03-01T20:36:08.523Z,100632.81
2019-03-01T20:38:39.919Z,100632.47
2019-03-01T20:41:09.951Z,100641.23
2019-03-01T20:43:41.760Z,100638.52
2019-03-01T20:46:11.597Z,100639.30
2019-03-01T20:48:41.563Z,100645.69
2019-03-01T20:51:11.423Z,100641.33
2019-03-01T20:53:41.178Z,100649.42
2019-03-01T20:56:13.871Z,100654.02
2019-03-01T20:58:42.798Z,100655.95
2019-03-01T21:01:14.415Z,100647.48
2019-03-01T21:03:43.915Z,100654.11
2019-03-01T21:06:13.926Z,100651.50
2019-03-01T21:08:43.628Z,100653.39
2019-03-01T21:11:13.334Z,100643.08
2019-03-01T21:13:45.807Z,100643.08
2019-03-01T21:16:15.095Z,100649.76
2019-03-01T21:18:44.808Z,100650.53
2019-03-01T21:21:14.808Z,100653.30
2019-03-01T21:23:47.625Z,100656.16
2019-03-01T21:26:16.882Z,100656.63
2019-03-01T21:28:46.652Z,100653.00
2019-03-01T21:31:16.356Z,100652.38
2019-03-01T21:33:46.132Z,100649.27
2019-03-01T21:36:15.899Z,100651.98
2019-03-01T21:38:49.154Z,100648.74
2019-03-01T21:41:17.064Z,100645.98
2019-03-01T21:43:47.212Z,100650.09
2019-03-01T21:46:16.939Z,100650.78
2019-03-01T21:48:46.618Z,100652.23
2019-03-01T21:51:18.555Z,100654.31
2019-03-01T21:53:48.106Z,100653.53
2019-03-01T21:56:18.118Z,100650.92
2019-03-01T21:58:47.939Z,100649.76
2019-03-01T22:01:17.635Z,100656.54
2019-03-01T22:03:47.643Z,100654.16
2019-03-01T22:06:17.417Z,100653.00
2019-03-01T22:08:49.725Z,100648.02
2019-03-01T22:11:20.888Z,100645.45
2019-03-01T22:13:50.808Z,100651.47
2019-03-01T22:16:20.781Z,100647.78
2019-03-01T22:18:50.737Z,100648.26
2019-03-01T22:21:22.848Z,100640.67
2019-03-01T22:23:52.581Z,100653.64
2019-03-01T22:26:22.353Z,100658.34
2019-03-01T22:28:52.153Z,100653.16
2019-03-01T22:31:21.873Z,100652.62
2019-03-01T22:33:52.603Z,100655.23
2019-03-01T22:36:23.193Z,100662.84
2019-03-01T22:38:52.985Z,100663.46
2019-03-01T22:41:22.714Z,100662.01
2019-03-01T22:43:52.535Z,100665.79
2019-03-01T22:46:24.826Z,100668.31
2019-03-01T22:48:56.702Z,100664.63
2019-03-01T22:51:25.551Z,100658.62
2019-03-01T22:53:55.255Z,100661.33
2019-03-01T22:56:25.044Z,100662.07
2019-03-01T22:58:55.193Z,100667.09
2019-03-01T23:01:36.792Z,100664.86
2019-03-01T23:04:07.049Z,100664.09
2019-03-01T23:06:36.822Z,100659.78
2019-03-01T23:09:10.646Z,100660.27
2019-03-01T23:11:42.272Z,100664.34
2019-03-01T23:14:11.992Z,100668.99
2019-03-01T23:16:42.063Z,100676.23
2019-03-01T23:19:12.764Z,100672.31
2019-03-01T23:21:43.405Z,100676.09
2019-03-01T23:24:13.116Z,100665.25
2019-03-01T23:26:42.860Z,100669.38
2019-03-01T23:29:15.711Z,100660.55
2019-03-01T23:31:44.575Z,100667.86
2019-03-01T23:34:14.589Z,100669.07
2019-03-01T23:36:44.366Z,100667.00
2019-03-01T23:39:14.160Z,100669.56
2019-03-01T23:41:46.389Z,100668.41
2019-03-01T23:44:16.116Z,100668.41
2019-03-01T23:46:45.929Z,100665.35
2019-03-01T23:49:15.658Z,100662.02
2019-03-01T23:51:46.229Z,100662.26
2019-03-01T23:54:16.165Z,100663.95
2019-03-01T23:56:45.993Z,100659.39
2019-03-01T23:59:15.750Z,100659.39
